Wetterdaten: Woche 27.09.10 - 03.10.10 (KW39)
Datum Zeit Temperatur Luftfeuchte Luftdruck Niederschlag Windrichtung Sonnenschein Solar Wind
27.09.2010 00:00 6,5 C 96 % 1010,6 hPa 0,0 l/m N 0,00 h 0 W/m 0,0 km/h (0 Bft)
27.09.2010 01:00 6,4 C 96 % 1010,5 hPa 0,0 l/m N 0,00 h 0 W/m 1,1 km/h (0 Bft)
27.09.2010 02:00 5,3 C 97 % 1010,7 hPa 0,0 l/m N 0,00 h 0 W/m 0,3 km/h (0 Bft)
27.09.2010 03:00 5,1 C 97 % 1010,5 hPa 0,0 l/m N 0,00 h 0 W/m 0,1 km/h (0 Bft)
27.09.2010 04:00 5,1 C 98 % 1010,7 hPa 0,0 l/m N 0,00 h 0 W/m 0,4 km/h (0 Bft)
27.09.2010 05:00 5,1 C 98 % 1010,7 hPa 0,2 l/m N 0,00 h 0 W/m 0,0 km/h (0 Bft)
27.09.2010 06:00 5,2 C 98 % 1010,6 hPa 0,0 l/m N 0,00 h 0 W/m 0,3 km/h (0 Bft)
27.09.2010 07:00 5,0 C 98 % 1010,6 hPa 0,0 l/m N 0,08 h 15 W/m 0,3 km/h (0 Bft)
27.09.2010 08:00 5,5 C 98 % 1010,7 hPa 0,0 l/m N 0,00 h 41 W/m 1,2 km/h (1 Bft)
27.09.2010 09:00 7,4 C 91 % 1010,8 hPa 0,0 l/m SW 1,00 h 304 W/m 2,9 km/h (1 Bft)
27.09.2010 10:00 9,5 C 77 % 1011,2 hPa 0,0 l/m W-SW 0,92 h 451 W/m 7,3 km/h (2 Bft)
27.09.2010 11:00 10,6 C 72 % 1011,2 hPa 0,0 l/m W-SW 0,83 h 516 W/m 11,0 km/h (2 Bft)
27.09.2010 12:00 12,0 C 62 % 1010,8 hPa 0,0 l/m W-SW 1,00 h 673 W/m 15,0 km/h (3 Bft)
27.09.2010 13:00 12,5 C 60 % 1010,6 hPa 0,0 l/m SW 0,75 h 526 W/m 15,7 km/h (3 Bft)
27.09.2010 14:00 12,9 C 60 % 1010,4 hPa 0,0 l/m SW 0,92 h 600 W/m 15,7 km/h (3 Bft)
27.09.2010 15:00 12,6 C 60 % 1010,4 hPa 0,0 l/m W-SW 0,25 h 240 W/m 12,8 km/h (3 Bft)
27.09.2010 16:00 12,2 C 64 % 1010,5 hPa 0,0 l/m W-SW 0,25 h 201 W/m 14,6 km/h (3 Bft)
27.09.2010 17:00 11,4 C 70 % 1010,9 hPa 0,0 l/m W-SW 0,00 h 103 W/m 13,4 km/h (3 Bft)
27.09.2010 18:00 10,6 C 75 % 1011,3 hPa 0,0 l/m W-SW 0,00 h 23 W/m 6,1 km/h (2 Bft)
27.09.2010 19:00 9,5 C 86 % 1011,8 hPa 0,0 l/m N 0,00 h 0 W/m 2,8 km/h (1 Bft)
27.09.2010 20:00 9,0 C 91 % 1012,1 hPa 0,2 l/m W 0,00 h 0 W/m 2,9 km/h (1 Bft)
27.09.2010 21:00 8,8 C 90 % 1012,4 hPa 0,2 l/m W 0,00 h 0 W/m 5,5 km/h (1 Bft)
27.09.2010 22:00 8,3 C 94 % 1012,8 hPa 0,0 l/m N 0,00 h 0 W/m 0,3 km/h (0 Bft)
27.09.2010 23:00 8,2 C 93 % 1012,9 hPa 0,0 l/m N 0,00 h 0 W/m 2,3 km/h (1 Bft)
28.09.2010 00:00 7,9 C 92 % 1013,2 hPa 0,0 l/m W 0,00 h 0 W/m 4,8 km/h (1 Bft)
28.09.2010 01:00 6,8 C 93 % 1013,6 hPa 0,0 l/m N 0,00 h 0 W/m 1,1 km/h (0 Bft)
28.09.2010 02:00 6,0 C 95 % 1013,7 hPa 0,0 l/m N 0,00 h 0 W/m 1,7 km/h (1 Bft)
28.09.2010 03:00 6,1 C 94 % 1013,7 hPa 0,0 l/m N 0,00 h 0 W/m 1,1 km/h (0 Bft)
28.09.2010 04:00 5,8 C 95 % 1013,7 hPa 0,0 l/m SW 0,00 h 0 W/m 2,0 km/h (1 Bft)
28.09.2010 05:00 6,4 C 94 % 1014,0 hPa 0,0 l/m N 0,00 h 0 W/m 3,3 km/h (1 Bft)
28.09.2010 06:00 6,8 C 90 % 1014,0 hPa 0,0 l/m W 0,00 h 0 W/m 6,6 km/h (2 Bft)
28.09.2010 07:00 6,9 C 89 % 1014,2 hPa 0,0 l/m W 0,00 h 12 W/m 7,4 km/h (2 Bft)
28.09.2010 08:00 7,0 C 91 % 1014,6 hPa 0,0 l/m W-SW 0,00 h 40 W/m 5,6 km/h (1 Bft)
28.09.2010 09:00 7,7 C 89 % 1015,0 hPa 0,0 l/m SW 0,00 h 91 W/m 4,4 km/h (1 Bft)
28.09.2010 10:00 8,7 C 84 % 1015,4 hPa 0,0 l/m W-SW 0,08 h 229 W/m 9,0 km/h (2 Bft)
28.09.2010 11:00 10,0 C 77 % 1015,8 hPa 0,0 l/m W 0,42 h 339 W/m 12,1 km/h (2 Bft)
28.09.2010 12:00 10,6 C 74 % 1016,0 hPa 0,0 l/m W 0,50 h 316 W/m 14,5 km/h (3 Bft)
28.09.2010 13:00 10,8 C 73 % 1016,2 hPa 0,0 l/m W 0,00 h 293 W/m 16,0 km/h (3 Bft)
28.09.2010 14:00 10,6 C 76 % 1016,2 hPa 0,0 l/m W-SW 0,00 h 175 W/m 12,2 km/h (2 Bft)
28.09.2010 15:00 10,5 C 78 % 1016,5 hPa 0,0 l/m W-SW 0,00 h 82 W/m 8,2 km/h (2 Bft)
28.09.2010 16:00 10,6 C 78 % 1016,7 hPa 0,0 l/m W-SW 0,00 h 68 W/m 6,4 km/h (2 Bft)
28.09.2010 17:00 10,1 C 81 % 1017,0 hPa 0,0 l/m W 0,00 h 20 W/m 4,7 km/h (1 Bft)
28.09.2010 18:00 9,5 C 88 % 1017,4 hPa 0,0 l/m N 0,00 h 6 W/m 0,1 km/h (0 Bft)
28.09.2010 19:00 9,2 C 90 % 1017,9 hPa 0,0 l/m N 0,00 h 0 W/m 0,7 km/h (0 Bft)
28.09.2010 20:00 9,1 C 92 % 1018,4 hPa 0,0 l/m N 0,00 h 0 W/m 0,3 km/h (0 Bft)
28.09.2010 21:00 8,8 C 92 % 1018,7 hPa 0,0 l/m N 0,00 h 0 W/m 0,0 km/h (0 Bft)
28.09.2010 22:00 8,7 C 92 % 1018,7 hPa 0,0 l/m N 0,00 h 0 W/m 0,0 km/h (0 Bft)
28.09.2010 23:00 8,6 C 93 % 1018,7 hPa 0,0 l/m N 0,00 h 0 W/m 0,5 km/h (0 Bft)
29.09.2010 00:00 8,6 C 92 % 1018,8 hPa 0,0 l/m N 0,00 h 0 W/m 1,6 km/h (1 Bft)
29.09.2010 01:00 8,4 C 93 % 1018,8 hPa 0,2 l/m N 0,00 h 0 W/m 0,4 km/h (0 Bft)
29.09.2010 02:00 8,3 C 96 % 1018,6 hPa 0,0 l/m N 0,00 h 0 W/m 0,7 km/h (0 Bft)
29.09.2010 03:00 8,3 C 96 % 1018,3 hPa 0,0 l/m N 0,00 h 0 W/m 0,0 km/h (0 Bft)
29.09.2010 04:00 8,2 C 97 % 1017,9 hPa 0,0 l/m SW 0,00 h 0 W/m 4,0 km/h (1 Bft)
29.09.2010 05:00 8,2 C 97 % 1017,9 hPa 0,0 l/m N 0,00 h 0 W/m 1,5 km/h (1 Bft)
29.09.2010 06:00 8,3 C 96 % 1017,9 hPa 0,0 l/m N 0,00 h 0 W/m 0,1 km/h (0 Bft)
29.09.2010 07:00 8,3 C 97 % 1018,0 hPa 0,0 l/m N 0,00 h 7 W/m 2,0 km/h (1 Bft)
29.09.2010 08:00 8,5 C 97 % 1018,3 hPa 0,2 l/m S-SW 0,00 h 42 W/m 3,3 km/h (1 Bft)
29.09.2010 09:00 9,3 C 94 % 1018,5 hPa 0,0 l/m N 0,08 h 130 W/m 2,1 km/h (1 Bft)
29.09.2010 10:00 10,4 C 88 % 1018,4 hPa 0,0 l/m S-SW 0,42 h 243 W/m 3,9 km/h (1 Bft)
29.09.2010 11:00 12,1 C 78 % 1018,3 hPa 0,0 l/m W-NW 0,58 h 407 W/m 7,4 km/h (2 Bft)
29.09.2010 12:00 12,0 C 78 % 1018,2 hPa 0,0 l/m O-SO 0,08 h 245 W/m 5,2 km/h (1 Bft)
29.09.2010 13:00 12,8 C 75 % 1018,0 hPa 0,0 l/m NO 0,42 h 337 W/m 5,3 km/h (1 Bft)
29.09.2010 14:00 12,9 C 76 % 1017,6 hPa 0,0 l/m NO 0,00 h 173 W/m 3,1 km/h (1 Bft)
29.09.2010 15:00 13,1 C 76 % 1017,3 hPa 0,0 l/m N-NO 0,08 h 139 W/m 5,5 km/h (1 Bft)
29.09.2010 16:00 12,8 C 79 % 1017,3 hPa 0,0 l/m N 0,00 h 72 W/m 4,9 km/h (1 Bft)
29.09.2010 17:00 12,6 C 81 % 1017,2 hPa 0,0 l/m N 0,00 h 70 W/m 2,0 km/h (1 Bft)
29.09.2010 18:00 12,2 C 85 % 1017,4 hPa 0,0 l/m N 0,00 h 23 W/m 1,3 km/h (1 Bft)
29.09.2010 19:00 10,8 C 92 % 1017,6 hPa 0,0 l/m N 0,00 h 0 W/m 0,4 km/h (0 Bft)
29.09.2010 20:00 9,6 C 94 % 1017,7 hPa 0,0 l/m N 0,00 h 0 W/m 0,4 km/h (0 Bft)
29.09.2010 21:00 8,6 C 96 % 1018,0 hPa 0,0 l/m N 0,00 h 0 W/m 0,0 km/h (0 Bft)
29.09.2010 22:00 8,8 C 97 % 1018,1 hPa 0,0 l/m N 0,00 h 0 W/m 0,1 km/h (0 Bft)
29.09.2010 23:00 8,7 C 97 % 1018,0 hPa 0,0 l/m N 0,00 h 0 W/m 0,1 km/h (0 Bft)
30.09.2010 00:00 8,2 C 97 % 1017,9 hPa 0,0 l/m N 0,00 h 0 W/m 0,3 km/h (0 Bft)
30.09.2010 01:00 7,6 C 98 % 1017,6 hPa 0,0 l/m N 0,00 h 0 W/m 0,5 km/h (0 Bft)
30.09.2010 02:00 7,7 C 98 % 1017,4 hPa 0,0 l/m N 0,00 h 0 W/m 1,7 km/h (1 Bft)
30.09.2010 03:00 7,4 C 98 % 1017,0 hPa 0,0 l/m N 0,00 h 0 W/m 1,9 km/h (1 Bft)
30.09.2010 04:00 7,2 C 98 % 1016,8 hPa 0,0 l/m N 0,00 h 0 W/m 0,0 km/h (0 Bft)
30.09.2010 05:00 7,3 C 98 % 1016,8 hPa 0,0 l/m N 0,00 h 0 W/m 0,1 km/h (0 Bft)
30.09.2010 06:00 7,1 C 98 % 1016,8 hPa 0,0 l/m N 0,00 h 0 W/m 0,0 km/h (0 Bft)
30.09.2010 07:00 7,3 C 98 % 1016,8 hPa 0,0 l/m N 0,25 h 22 W/m 0,7 km/h (0 Bft)
30.09.2010 08:00 7,8 C 99 % 1017,0 hPa 0,0 l/m N 0,00 h 42 W/m 0,0 km/h (0 Bft)
30.09.2010 09:00 8,4 C 99 % 1017,0 hPa 0,0 l/m N 0,00 h 77 W/m 0,1 km/h (0 Bft)
30.09.2010 10:00 9,1 C 98 % 1016,9 hPa 0,0 l/m S-SW 0,00 h 80 W/m 2,5 km/h (1 Bft)
30.09.2010 11:00 10,0 C 97 % 1016,8 hPa 0,0 l/m S-SW 0,00 h 172 W/m 4,1 km/h (1 Bft)
30.09.2010 12:00 11,2 C 92 % 1016,4 hPa 0,0 l/m S-SW 0,00 h 133 W/m 5,6 km/h (1 Bft)
30.09.2010 13:00 11,5 C 91 % 1016,2 hPa 0,2 l/m S-SW 0,00 h 160 W/m 3,3 km/h (1 Bft)
30.09.2010 14:00 12,0 C 89 % 1015,7 hPa 0,0 l/m S-SW 0,00 h 182 W/m 5,9 km/h (2 Bft)
30.09.2010 15:00 12,5 C 88 % 1015,5 hPa 0,0 l/m S 0,00 h 159 W/m 6,0 km/h (2 Bft)
30.09.2010 16:00 12,7 C 89 % 1015,3 hPa 0,0 l/m S-SW 0,00 h 75 W/m 6,8 km/h (2 Bft)
30.09.2010 17:00 12,3 C 92 % 1015,0 hPa 0,0 l/m S-SW 0,00 h 39 W/m 5,6 km/h (1 Bft)
30.09.2010 18:00 11,9 C 95 % 1015,0 hPa 0,0 l/m S-SW 0,00 h 10 W/m 4,3 km/h (1 Bft)
30.09.2010 19:00 11,3 C 97 % 1014,9 hPa 0,0 l/m N 0,00 h 0 W/m 0,1 km/h (0 Bft)
30.09.2010 20:00 10,7 C 98 % 1014,8 hPa 0,0 l/m N 0,00 h 0 W/m 0,1 km/h (0 Bft)
30.09.2010 21:00 10,5 C 98 % 1014,8 hPa 0,0 l/m N 0,00 h 0 W/m 0,0 km/h (0 Bft)
30.09.2010 22:00 10,0 C 98 % 1014,8 hPa 0,2 l/m N 0,00 h 0 W/m 0,0 km/h (0 Bft)
30.09.2010 23:00 9,5 C 98 % 1014,6 hPa 0,0 l/m N 0,00 h 0 W/m 0,0 km/h (0 Bft)
01.10.2010 00:00 9,0 C 99 % 1014,4 hPa 0,0 l/m N 0,00 h 0 W/m 0,0 km/h (0 Bft)
01.10.2010 01:00 9,2 C 99 % 1014,3 hPa 0,0 l/m N 0,00 h 0 W/m 0,0 km/h (0 Bft)
01.10.2010 02:00 9,2 C 99 % 1014,2 hPa 1,0 l/m N 0,00 h 0 W/m 0,0 km/h (0 Bft)
01.10.2010 03:00 9,2 C 99 % 1013,9 hPa 0,6 l/m N 0,00 h 0 W/m 0,5 km/h (0 Bft)
01.10.2010 04:00 9,5 C 99 % 1013,5 hPa 0,2 l/m S-SW 0,00 h 0 W/m 3,6 km/h (1 Bft)
01.10.2010 05:00 9,9 C 99 % 1013,2 hPa 0,4 l/m S-SW 0,00 h 0 W/m 3,9 km/h (1 Bft)
01.10.2010 06:00 10,2 C 99 % 1013,2 hPa 1,2 l/m S-SW 0,00 h 0 W/m 8,4 km/h (2 Bft)
01.10.2010 07:00 10,2 C 99 % 1013,3 hPa 0,4 l/m SW 0,00 h 0 W/m 9,0 km/h (2 Bft)
01.10.2010 08:00 10,5 C 99 % 1013,7 hPa 0,2 l/m W-SW 0,00 h 26 W/m 12,2 km/h (2 Bft)
01.10.2010 09:00 10,6 C 98 % 1014,0 hPa 0,0 l/m W-SW 0,00 h 74 W/m 14,9 km/h (3 Bft)
01.10.2010 10:00 11,0 C 96 % 1014,3 hPa 0,0 l/m W-SW 0,00 h 148 W/m 17,4 km/h (3 Bft)
01.10.2010 11:00 11,9 C 92 % 1014,5 hPa 0,0 l/m SW 0,17 h 260 W/m 15,6 km/h (3 Bft)
01.10.2010 12:00 12,7 C 88 % 1014,4 hPa 0,0 l/m W 0,00 h 246 W/m 10,9 km/h (2 Bft)
01.10.2010 13:00 13,6 C 82 % 1014,0 hPa 0,0 l/m W 0,58 h 362 W/m 11,2 km/h (2 Bft)
01.10.2010 14:00 14,6 C 74 % 1013,5 hPa 0,0 l/m SW 0,75 h 492 W/m 12,4 km/h (3 Bft)
01.10.2010 15:00 15,4 C 60 % 1013,1 hPa 0,0 l/m SW 1,00 h 467 W/m 14,1 km/h (3 Bft)
01.10.2010 16:00 15,1 C 64 % 1013,0 hPa 0,0 l/m SW 0,58 h 233 W/m 11,2 km/h (2 Bft)
01.10.2010 17:00 14,7 C 66 % 1013,0 hPa 0,0 l/m W-SW 0,17 h 79 W/m 8,0 km/h (2 Bft)
01.10.2010 18:00 12,4 C 80 % 1013,0 hPa 0,0 l/m N 0,00 h 17 W/m 1,2 km/h (1 Bft)
01.10.2010 19:00 9,7 C 91 % 1013,3 hPa 0,0 l/m N 0,00 h 0 W/m 0,1 km/h (0 Bft)
01.10.2010 20:00 8,3 C 94 % 1013,6 hPa 0,0 l/m N 0,00 h 0 W/m 0,0 km/h (0 Bft)
01.10.2010 21:00 7,4 C 96 % 1013,7 hPa 0,0 l/m N 0,00 h 0 W/m 0,0 km/h (0 Bft)
01.10.2010 22:00 7,1 C 97 % 1013,8 hPa 0,0 l/m N 0,00 h 0 W/m 0,0 km/h (0 Bft)
01.10.2010 23:00 6,5 C 97 % 1014,0 hPa 0,0 l/m N 0,00 h 0 W/m 0,0 km/h (0 Bft)
02.10.2010 00:00 6,3 C 97 % 1014,1 hPa 0,0 l/m N 0,00 h 0 W/m 0,0 km/h (0 Bft)
02.10.2010 01:00 6,0 C 97 % 1014,3 hPa 0,0 l/m N 0,00 h 0 W/m 0,0 km/h (0 Bft)
02.10.2010 02:00 5,6 C 97 % 1014,5 hPa 0,0 l/m N 0,00 h 0 W/m 0,0 km/h (0 Bft)
02.10.2010 03:00 5,8 C 97 % 1014,3 hPa 0,0 l/m N 0,00 h 0 W/m 0,0 km/h (0 Bft)
02.10.2010 04:00 6,1 C 98 % 1014,3 hPa 0,0 l/m N 0,00 h 0 W/m 0,0 km/h (0 Bft)
02.10.2010 05:00 6,4 C 98 % 1014,4 hPa 0,0 l/m N 0,00 h 0 W/m 0,3 km/h (0 Bft)
02.10.2010 06:00 6,7 C 98 % 1014,6 hPa 0,2 l/m N 0,00 h 0 W/m 0,0 km/h (0 Bft)
02.10.2010 07:00 6,8 C 98 % 1014,9 hPa 0,0 l/m N 0,00 h 10 W/m 0,4 km/h (0 Bft)
02.10.2010 08:00 7,6 C 98 % 1015,1 hPa 0,0 l/m N 0,00 h 50 W/m 1,2 km/h (1 Bft)
02.10.2010 09:00 8,8 C 98 % 1015,4 hPa 0,0 l/m SO 0,00 h 89 W/m 2,5 km/h (1 Bft)
02.10.2010 10:00 10,7 C 95 % 1015,4 hPa 0,0 l/m S-SW 0,08 h 212 W/m 4,9 km/h (1 Bft)
02.10.2010 11:00 13,0 C 88 % 1015,3 hPa 0,0 l/m SO 0,33 h 302 W/m 7,1 km/h (2 Bft)
02.10.2010 12:00 15,2 C 77 % 1015,2 hPa 0,0 l/m SW 0,50 h 308 W/m 10,2 km/h (2 Bft)
02.10.2010 13:00 16,4 C 73 % 1014,8 hPa 0,0 l/m S-SW 0,58 h 373 W/m 11,8 km/h (2 Bft)
02.10.2010 14:00 17,9 C 67 % 1014,4 hPa 0,0 l/m S-SW 0,83 h 520 W/m 12,2 km/h (2 Bft)
02.10.2010 15:00 18,6 C 57 % 1014,2 hPa 0,0 l/m W-SW 0,58 h 329 W/m 16,1 km/h (3 Bft)
02.10.2010 16:00 17,6 C 64 % 1014,2 hPa 0,0 l/m W-SW 0,08 h 134 W/m 9,8 km/h (2 Bft)
02.10.2010 17:00 17,3 C 69 % 1014,0 hPa 0,0 l/m SW 0,08 h 90 W/m 7,5 km/h (2 Bft)
02.10.2010 18:00 15,7 C 75 % 1014,0 hPa 0,2 l/m W-SW 0,00 h 24 W/m 3,1 km/h (1 Bft)
02.10.2010 19:00 12,9 C 89 % 1014,1 hPa 0,0 l/m N 0,00 h 0 W/m 0,3 km/h (0 Bft)
02.10.2010 20:00 11,5 C 93 % 1014,2 hPa 0,0 l/m N 0,00 h 0 W/m 0,0 km/h (0 Bft)
02.10.2010 21:00 10,7 C 94 % 1014,2 hPa 0,0 l/m N 0,00 h 0 W/m 0,5 km/h (0 Bft)
02.10.2010 22:00 9,9 C 96 % 1014,1 hPa 0,0 l/m N 0,00 h 0 W/m 1,2 km/h (1 Bft)
02.10.2010 23:00 9,8 C 97 % 1013,9 hPa 0,0 l/m W-SW 0,00 h 0 W/m 3,5 km/h (1 Bft)
03.10.2010 00:00 9,6 C 96 % 1013,6 hPa 0,0 l/m N 0,00 h 0 W/m 0,9 km/h (0 Bft)
03.10.2010 01:00 8,9 C 97 % 1013,1 hPa 0,0 l/m N 0,00 h 0 W/m 0,7 km/h (0 Bft)
03.10.2010 02:00 8,4 C 98 % 1013,0 hPa 0,0 l/m N 0,00 h 0 W/m 1,1 km/h (0 Bft)
03.10.2010 03:00 8,2 C 98 % 1012,8 hPa 0,0 l/m N 0,00 h 0 W/m 0,1 km/h (0 Bft)
03.10.2010 04:00 8,2 C 98 % 1012,4 hPa 0,0 l/m N 0,00 h 0 W/m 0,4 km/h (0 Bft)
03.10.2010 05:00 8,0 C 98 % 1012,1 hPa 0,0 l/m N-NW 0,00 h 0 W/m 3,1 km/h (1 Bft)
03.10.2010 06:00 7,3 C 98 % 1011,6 hPa 0,0 l/m N-NW 0,00 h 0 W/m 4,8 km/h (1 Bft)
03.10.2010 07:00 7,2 C 98 % 1011,5 hPa 0,0 l/m N-NW 0,00 h 17 W/m 4,0 km/h (1 Bft)
03.10.2010 08:00 8,1 C 99 % 1011,7 hPa 0,0 l/m N-NW 0,00 h 51 W/m 6,1 km/h (2 Bft)
03.10.2010 09:00 9,6 C 99 % 1011,8 hPa 0,0 l/m N-NO 0,83 h 242 W/m 6,1 km/h (2 Bft)
03.10.2010 10:00 12,8 C 89 % 1011,6 hPa 0,0 l/m N 1,00 h 399 W/m 7,0 km/h (2 Bft)
03.10.2010 11:00 14,8 C 82 % 1011,2 hPa 0,0 l/m N 1,00 h 511 W/m 8,0 km/h (2 Bft)
03.10.2010 12:00 16,3 C 78 % 1010,8 hPa 0,0 l/m NO 0,92 h 577 W/m 8,3 km/h (2 Bft)
03.10.2010 13:00 17,2 C 74 % 1010,0 hPa 0,0 l/m O-NO 0,92 h 515 W/m 8,2 km/h (2 Bft)
03.10.2010 14:00 18,6 C 72 % 1009,0 hPa 0,0 l/m O-NO 1,00 h 511 W/m 7,9 km/h (2 Bft)
03.10.2010 15:00 19,6 C 71 % 1008,4 hPa 0,0 l/m O-NO 0,92 h 393 W/m 9,4 km/h (2 Bft)
03.10.2010 16:00 19,5 C 73 % 1007,7 hPa 0,0 l/m O-NO 0,75 h 234 W/m 9,9 km/h (2 Bft)
03.10.2010 17:00 19,1 C 76 % 1007,2 hPa 0,0 l/m NO 0,00 h 53 W/m 8,7 km/h (2 Bft)
03.10.2010 18:00 17,7 C 81 % 1006,9 hPa 0,0 l/m NO 0,00 h 14 W/m 6,3 km/h (2 Bft)
03.10.2010 19:00 14,9 C 92 % 1006,9 hPa 0,0 l/m N 0,00 h 0 W/m 2,8 km/h (1 Bft)
03.10.2010 20:00 13,3 C 96 % 1006,8 hPa 0,0 l/m NO 0,00 h 0 W/m 2,9 km/h (1 Bft)
03.10.2010 21:00 12,5 C 97 % 1006,5 hPa 0,0 l/m N 0,00 h 0 W/m 2,8 km/h (1 Bft)
03.10.2010 22:00 11,7 C 97 % 1006,2 hPa 0,0 l/m N 0,00 h 0 W/m 2,5 km/h (1 Bft)
03.10.2010 23:00 11,1 C 98 % 1005,8 hPa 0,0 l/m N 0,00 h 0 W/m 2,4 km/h (1 Bft)
Min-Datum _ 27.09.10 02.10.10 03.10.10 - - - - 27.09.10
_ Min-Zeit 07:45 15:00 23:30 - - - - 00:00
Minimum _ 4,7 C 54 % 1005,7 hPa - - - - 0,0 km/h (0 Bft)
Max-Datum _ 03.10.10 27.09.10 29.09.10 01.10.10 - 27.09.10 29.09.10 02.10.10
_ Max-Zeit 15:50 06:25 01:10 06:05 - 07:25 13:40 15:20
Maximum _ 19,8 C 99 % 1018,9 hPa 1,2 l/m - 0,08 h 809 W/m 25,7 km/h
W-SW (4 Bft)
Durchschnitt _ 10,1 C 89 % 1014,2 hPa #5,8 l/m W-SW #22:35 h 202 W/m 4,3 km/h (1 Bft)